createdAt,value
2023-04-16T09:43:28.272Z,142419.06
2023-04-16T09:48:35.009Z,142388.13
2023-04-16T09:53:41.862Z,142433.91
2023-04-16T09:58:46.984Z,142472.25
2023-04-16T10:03:50.993Z,142493.31
2023-04-16T10:08:56.880Z,142373.25
2023-04-16T10:14:01.888Z,142536.59
2023-04-16T10:19:05.764Z,142565.03
2023-04-16T10:24:09.746Z,142556.38
2023-04-16T10:29:17.368Z,142649.22
2023-04-16T10:34:21.325Z,142775.56
2023-04-16T10:39:25.584Z,142750.78
2023-04-16T10:44:32.354Z,142734.66
2023-04-16T10:49:37.261Z,142789.16
2023-04-16T10:54:43.485Z,142816.41
2023-04-16T10:59:49.720Z,142765.63
2023-04-16T11:04:53.209Z,142770.56
2023-04-16T11:09:57.788Z,142738.38
2023-04-16T11:15:03.415Z,142778.03
2023-04-16T11:20:19.283Z,142756.97
2023-04-16T11:25:24.839Z,142748.31
2023-04-16T11:30:33.941Z,142724.75
2023-04-16T11:35:37.993Z,142654.16
2023-04-16T11:40:44.035Z,142664.09
2023-04-16T11:45:58.936Z,142609.59
2023-04-16T11:51:02.506Z,142511.84
2023-04-16T11:56:07.115Z,142497.00
2023-04-16T12:01:12.230Z,142485.84
2023-04-16T12:06:15.627Z,142494.53
2023-04-16T12:11:19.095Z,142506.91
2023-04-16T12:16:27.257Z,142506.91
2023-04-16T12:21:37.729Z,142557.59
2023-04-16T12:26:42.256Z,142579.91
2023-04-16T12:31:47.596Z,142520.53
2023-04-16T12:37:03.852Z,142553.91
2023-04-16T12:42:11.334Z,142546.53
2023-04-16T12:47:16.465Z,142498.25
2023-04-16T12:52:20.239Z,142525.47
2023-04-16T12:57:28.617Z,142546.53
2023-04-16T13:02:34.124Z,142560.06
2023-04-16T13:07:40.086Z,142545.25
2023-04-16T13:12:43.416Z,142638.06
2023-04-16T13:17:48.338Z,142716.09
2023-04-16T13:22:51.820Z,142714.88
2023-04-16T13:27:55.319Z,142738.38
2023-04-16T13:33:00.277Z,142780.50
2023-04-16T13:38:03.801Z,142810.22
2023-04-16T13:43:09.805Z,142801.56
2023-04-16T13:48:14.712Z,142778.03
2023-04-16T13:53:18.165Z,142785.44
2023-04-16T13:58:21.598Z,142797.81
2023-04-16T14:03:28.837Z,142754.50
2023-04-16T14:08:32.367Z,142707.41
2023-04-16T14:13:35.982Z,142711.13
2023-04-16T14:18:42.393Z,142661.63
2023-04-16T14:23:45.995Z,142618.25
2023-04-16T14:28:49.656Z,142599.66
2023-04-16T14:33:54.631Z,142581.13
2023-04-16T14:38:58.269Z,142551.44
2023-04-16T14:44:01.920Z,142581.13
2023-04-16T14:49:12.081Z,142527.94
2023-04-16T14:54:17.444Z,142483.38
2023-04-16T14:59:22.837Z,142494.53
2023-04-16T15:04:29.809Z,142479.66
2023-04-16T15:09:35.648Z,142469.78
2023-04-16T15:14:43.587Z,142467.31
2023-04-16T15:19:48.688Z,142456.16
2023-04-16T15:24:53.999Z,142458.63
2023-04-16T15:29:57.322Z,142435.16
2023-04-16T15:35:03.253Z,142449.97
2023-04-16T15:40:08.250Z,142443.81
2023-04-16T15:45:11.942Z,142436.38
2023-04-16T15:50:17.399Z,142448.75
2023-04-16T15:55:21.236Z,142406.69
2023-04-16T16:00:31.107Z,142388.13
2023-04-16T16:05:37.684Z,142396.78
2023-04-16T16:10:47.526Z,142380.72
2023-04-16T16:15:51.811Z,142357.22
2023-04-16T16:20:59.675Z,142333.69
2023-04-16T16:26:06.370Z,142240.97
2023-04-16T16:31:13.149Z,142321.34
2023-04-16T16:36:27.662Z,142302.78
2023-04-16T16:41:32.348Z,142244.69
2023-04-16T16:46:36.636Z,142243.44
2023-04-16T16:51:41.473Z,142244.69
2023-04-16T16:56:45.022Z,142255.78
2023-04-16T17:01:48.514Z,142275.59
2023-04-16T17:06:53.649Z,142275.59
2023-04-16T17:12:00.733Z,142291.63
2023-04-16T17:17:04.392Z,142264.47
2023-04-16T17:22:09.593Z,142238.50
2023-04-16T17:27:13.099Z,142223.66
2023-04-16T17:32:16.597Z,142228.59
2023-04-16T17:37:21.521Z,142233.53
2023-04-16T17:42:28.251Z,142217.47
2023-04-16T17:47:50.838Z,142192.75
2023-04-16T17:53:03.678Z,142179.13
2023-04-16T17:58:08.737Z,142158.16
2023-04-16T18:03:16.650Z,142165.56
2023-04-16T18:08:24.363Z,142168.03
2023-04-16T18:13:31.158Z,142192.75
2023-04-16T18:18:37.913Z,142142.06
2023-04-16T18:23:59.178Z,142134.66
2023-04-16T18:29:05.639Z,142108.72
2023-04-16T18:34:10.992Z,142133.44
2023-04-16T18:39:20.928Z,142132.19
2023-04-16T18:44:26.513Z,142121.03
2023-04-16T18:49:32.163Z,142124.78
2023-04-16T18:54:37.121Z,142127.25
2023-04-16T18:59:42.128Z,142088.91
2023-04-16T19:04:46.126Z,142044.47
2023-04-16T19:09:49.821Z,142060.50
2023-04-16T19:14:56.753Z,142043.25
2023-04-16T19:20:01.802Z,142061.75
2023-04-16T19:25:07.315Z,142048.16
2023-04-16T19:30:13.319Z,142061.75
2023-04-16T19:35:22.165Z,142042.00
2023-04-16T19:40:26.399Z,142008.59
2023-04-16T19:45:31.818Z,142032.09
2023-04-16T19:50:36.183Z,142035.78
2023-04-16T19:55:40.753Z,142035.78
2023-04-16T20:00:47.507Z,142028.38
2023-04-16T20:05:51.252Z,142028.38
2023-04-16T20:10:58.972Z,142023.47
2023-04-16T20:16:05.324Z,141974.03
2023-04-16T20:21:09.212Z,141969.09
2023-04-16T20:26:15.614Z,141961.72
2023-04-16T20:31:25.211Z,141904.94
2023-04-16T20:36:28.980Z,141898.75
2023-04-16T20:41:33.044Z,141856.78
2023-04-16T20:46:40.288Z,141871.63
2023-04-16T20:51:46.691Z,141849.38
2023-04-16T20:56:50.647Z,141875.31
2023-04-16T21:01:57.173Z,141853.09
2023-04-16T21:07:09.631Z,141895.03
